createdAt,value
2023-05-07T00:00:05.888Z,8.91
2023-05-07T00:04:22.774Z,8.92
2023-05-07T00:08:32.311Z,8.91
2023-05-07T00:12:42.011Z,8.88
2023-05-07T00:16:41.326Z,8.86
2023-05-07T00:20:50.921Z,8.86
2023-05-07T00:24:53.464Z,8.85
2023-05-07T00:29:03.230Z,8.85
2023-05-07T00:33:12.681Z,8.84
2023-05-07T00:37:12.656Z,8.81
2023-05-07T00:41:09.871Z,8.80
2023-05-07T00:45:19.280Z,8.79
2023-05-07T00:49:28.849Z,8.76
2023-05-07T00:53:38.394Z,8.75
2023-05-07T00:57:20.704Z,8.74
2023-05-07T01:01:30.498Z,8.72
2023-05-07T01:05:22.916Z,8.70
2023-05-07T01:09:32.885Z,8.71
2023-05-07T01:13:35.075Z,8.71
2023-05-07T01:17:43.892Z,8.73
2023-05-07T01:22:02.884Z,8.72
2023-05-07T01:26:11.889Z,8.68
2023-05-07T01:30:21.352Z,8.67
2023-05-07T01:34:30.758Z,8.66
2023-05-07T01:38:40.353Z,8.65
2023-05-07T01:42:49.926Z,8.64
2023-05-07T01:46:59.438Z,8.64
2023-05-07T01:51:09.331Z,8.63
2023-05-07T01:55:04.613Z,8.60
2023-05-07T01:59:14.050Z,8.57
2023-05-07T02:19:49.852Z,8.45
2023-05-07T02:23:59.411Z,8.42
2023-05-07T02:28:00.635Z,8.43
2023-05-07T02:32:10.335Z,8.42
2023-05-07T02:36:19.769Z,8.36
2023-05-07T02:40:34.779Z,8.28
2023-05-07T02:44:44.292Z,8.21
2023-05-07T02:48:46.115Z,8.15
2023-05-07T02:52:48.454Z,8.14
2023-05-07T02:56:29.151Z,8.09
2023-05-07T03:00:37.642Z,8.01
2023-05-07T03:04:53.331Z,7.91
2023-05-07T03:09:01.505Z,7.83
2023-05-07T03:13:11.060Z,7.78
2023-05-07T03:17:09.902Z,7.71
2023-05-07T03:21:18.032Z,7.64
2023-05-07T03:25:27.539Z,7.54
2023-05-07T03:29:36.978Z,7.44
2023-05-07T03:33:40.867Z,7.41
2023-05-07T03:37:30.140Z,7.40
2023-05-07T03:41:32.165Z,7.33
2023-05-07T03:45:34.397Z,7.24
2023-05-07T03:49:40.200Z,7.19
2023-05-07T03:53:49.631Z,7.14
2023-05-07T03:57:59.100Z,7.10
2023-05-07T04:02:08.684Z,7.10
2023-05-07T04:05:58.194Z,7.14
2023-05-07T04:10:08.044Z,7.15
2023-05-07T04:14:17.783Z,7.18
2023-05-07T04:18:27.182Z,7.23
2023-05-07T04:22:37.904Z,7.25
2023-05-07T04:26:40.692Z,7.26
2023-05-07T04:30:32.928Z,7.29
2023-05-07T04:34:42.380Z,7.34
2023-05-07T04:38:51.816Z,7.36
2023-05-07T04:43:01.671Z,7.40
2023-05-07T04:46:54.177Z,7.46
2023-05-07T04:51:03.814Z,7.53
2023-05-07T04:55:13.412Z,7.61
2023-05-07T04:59:15.764Z,7.69
2023-05-07T05:03:25.362Z,7.78
2023-05-07T05:07:25.063Z,7.85
2023-05-07T05:11:34.498Z,7.91
2023-05-07T05:15:44.129Z,7.97
2023-05-07T05:19:53.713Z,8.04
2023-05-07T05:24:03.230Z,8.08
2023-05-07T05:28:12.757Z,8.14
2023-05-07T05:32:22.472Z,8.20
2023-05-07T05:36:32.146Z,8.28
2023-05-07T05:40:41.604Z,8.37
2023-05-07T05:44:30.862Z,8.43
2023-05-07T05:48:38.873Z,8.49
2023-05-07T05:52:48.350Z,8.54
2023-05-07T05:56:54.280Z,8.60
2023-05-07T06:00:53.835Z,8.66
2023-05-07T06:05:03.611Z,8.70
2023-05-07T06:08:57.053Z,8.74
2023-05-07T06:13:06.720Z,8.78
2023-05-07T06:17:16.308Z,8.82
2023-05-07T06:21:18.224Z,8.85
2023-05-07T06:25:27.667Z,8.87
2023-05-07T06:29:37.129Z,8.92
2023-05-07T06:33:46.608Z,8.94
2023-05-07T06:37:51.293Z,8.97
2023-05-07T06:41:40.612Z,9.00
2023-05-07T06:45:42.245Z,9.04
2023-05-07T06:49:51.639Z,9.08
2023-05-07T06:53:59.217Z,9.13
2023-05-07T06:58:01.836Z,9.18
2023-05-07T07:02:11.366Z,9.22
2023-05-07T07:06:12.946Z,9.21
2023-05-07T07:10:21.228Z,9.25
2023-05-07T07:14:00.859Z,9.30
2023-05-07T07:17:39.498Z,9.33
2023-05-07T07:21:20.852Z,9.39
2023-05-07T07:25:17.269Z,9.45
2023-05-07T07:29:06.503Z,9.51
2023-05-07T07:33:16.196Z,9.52
2023-05-07T07:41:55.100Z,9.54
2023-05-07T07:45:54.535Z,9.57
2023-05-07T07:49:12.624Z,9.62
2023-05-07T07:53:22.409Z,9.66
2023-05-07T07:57:31.862Z,9.70
2023-05-07T08:01:42.441Z,9.75
2023-05-07T08:05:45.825Z,9.80
2023-05-07T08:09:55.362Z,9.86
2023-05-07T08:14:05.151Z,9.90
2023-05-07T08:18:15.017Z,9.92
2023-05-07T08:22:24.280Z,9.97
2023-05-07T08:26:34.100Z,10.01
2023-05-07T08:30:43.677Z,10.03
2023-05-07T08:34:45.884Z,10.06
2023-05-07T08:38:50.509Z,10.09
2023-05-07T08:42:53.379Z,10.12
2023-05-07T08:47:02.339Z,10.13
2023-05-07T08:51:12.278Z,10.14
2023-05-07T08:55:22.105Z,10.14
2023-05-07T08:59:11.956Z,10.16
2023-05-07T09:03:21.421Z,10.18
2023-05-07T09:07:24.306Z,10.21
2023-05-07T09:11:25.262Z,10.25
2023-05-07T09:15:34.706Z,10.26
2023-05-07T09:19:44.184Z,10.27
2023-05-07T09:23:53.726Z,10.31
2023-05-07T09:28:01.969Z,10.35
2023-05-07T09:32:11.566Z,10.39
2023-05-07T09:36:10.063Z,10.42
2023-05-07T09:40:25.636Z,10.41
2023-05-07T09:44:35.193Z,10.47
2023-05-07T09:48:44.951Z,10.52
2023-05-07T09:52:47.747Z,10.59
2023-05-07T09:56:47.155Z,10.63
2023-05-07T10:00:56.908Z,10.67
2023-05-07T10:05:06.099Z,10.72
2023-05-07T10:09:15.508Z,10.76
2023-05-07T10:13:11.220Z,10.83
2023-05-07T10:17:20.864Z,10.91
2023-05-07T10:21:30.693Z,10.98
2023-05-07T10:25:18.917Z,11.04
2023-05-07T10:29:03.927Z,11.14
2023-05-07T10:33:05.208Z,11.23
2023-05-07T10:36:25.421Z,11.30
2023-05-07T10:40:23.433Z,11.38
2023-05-07T10:44:45.132Z,11.48
2023-05-07T10:48:30.124Z,11.61
2023-05-07T10:52:55.372Z,11.71
2023-05-07T10:57:21.471Z,11.80
2023-05-07T11:01:21.526Z,11.92
2023-05-07T11:05:29.770Z,12.01
2023-05-07T11:09:34.382Z,12.10
2023-05-07T11:13:10.609Z,12.19
2023-05-07T11:17:09.184Z,12.31
2023-05-07T11:21:30.680Z,12.41
2023-05-07T11:25:22.848Z,12.47
2023-05-07T11:29:32.444Z,12.53
2023-05-07T11:33:37.971Z,12.56
2023-05-07T11:37:15.945Z,12.58
2023-05-07T11:41:11.437Z,12.62
2023-05-07T11:45:18.058Z,12.67
2023-05-07T11:55:01.216Z,12.78
2023-05-07T11:58:33.472Z,12.82
2023-05-07T12:02:32.119Z,12.90
2023-05-07T12:06:06.511Z,13.01
2023-05-07T12:10:04.560Z,13.11
2023-05-07T12:13:48.549Z,13.23
2023-05-07T12:17:47.791Z,13.38
2023-05-07T12:21:50.337Z,13.47
2023-05-07T12:25:47.865Z,13.48
2023-05-07T12:29:48.814Z,13.43
2023-05-07T12:33:58.413Z,13.51
2023-05-07T12:37:44.195Z,13.57
2023-05-07T12:41:52.408Z,13.58
2023-05-07T12:46:02.368Z,13.61
2023-05-07T12:50:12.115Z,13.61
2023-05-07T12:54:14.556Z,13.69
2023-05-07T12:57:43.301Z,13.72
2023-05-07T13:01:51.878Z,13.77
2023-05-07T13:05:20.917Z,13.86
2023-05-07T13:09:16.081Z,13.93
2023-05-07T13:13:25.653Z,14.00
2023-05-07T13:17:35.663Z,13.81
2023-05-07T13:21:34.036Z,13.63
2023-05-07T13:25:37.185Z,13.62
2023-05-07T13:29:31.238Z,13.68
2023-05-07T13:33:30.938Z,13.79
2023-05-07T13:37:23.177Z,14.01
2023-05-07T13:41:08.516Z,14.25
2023-05-07T13:45:10.887Z,14.33
2023-05-07T13:49:03.616Z,14.36
2023-05-07T13:52:40.421Z,14.51
2023-05-07T13:56:50.096Z,14.67
2023-05-07T14:00:53.590Z,14.86
2023-05-07T14:03:55.794Z,15.07
2023-05-07T14:07:16.095Z,15.19
2023-05-07T14:10:54.194Z,15.30
2023-05-07T14:14:05.668Z,15.50
2023-05-07T14:18:00.725Z,15.63
2023-05-07T14:21:36.566Z,15.72
2023-05-07T14:24:41.248Z,15.91
2023-05-07T14:28:41.076Z,16.13
2023-05-07T14:32:43.693Z,16.10
2023-05-07T14:36:38.968Z,16.11
2023-05-07T14:40:48.729Z,16.29
2023-05-07T14:44:58.217Z,16.52
2023-05-07T14:59:27.076Z,17.54
2023-05-07T15:03:16.920Z,18.06
2023-05-07T15:07:08.851Z,18.08
2023-05-07T15:10:43.807Z,17.80
2023-05-07T15:14:51.918Z,17.37
2023-05-07T15:18:55.674Z,17.08
2023-05-07T15:22:05.113Z,17.01
2023-05-07T15:26:14.649Z,16.77
2023-05-07T15:30:53.992Z,16.68
2023-05-07T15:34:53.950Z,17.03
2023-05-07T15:37:56.060Z,17.25
2023-05-07T15:41:27.748Z,17.46
2023-05-07T15:45:27.186Z,17.73
2023-05-07T15:48:55.444Z,17.85
2023-05-07T15:52:54.424Z,18.04
2023-05-07T15:56:53.123Z,18.48
2023-05-07T16:00:48.262Z,18.60
2023-05-07T16:04:33.018Z,18.56
2023-05-07T16:08:42.489Z,18.59
2023-05-07T16:12:52.447Z,18.72
2023-05-07T16:16:50.329Z,18.98
2023-05-07T16:20:23.264Z,19.03
2023-05-07T16:23:27.826Z,19.15
2023-05-07T16:27:22.836Z,19.26
2023-05-07T16:31:11.988Z,19.22
2023-05-07T16:34:32.481Z,19.14
2023-05-07T16:38:11.731Z,19.09
2023-05-07T16:42:08.590Z,18.86
2023-05-07T16:45:59.864Z,18.59
2023-05-07T16:50:00.281Z,18.57
2023-05-07T16:54:09.754Z,18.31
2023-05-07T16:57:54.671Z,17.95
2023-05-07T17:01:57.093Z,17.89
2023-05-07T17:06:09.667Z,18.00
2023-05-07T17:10:17.443Z,17.94
2023-05-07T17:14:27.012Z,17.84
2023-05-07T17:18:26.363Z,17.70
2023-05-07T17:22:13.078Z,17.34
2023-05-07T17:26:22.498Z,17.04
2023-05-07T17:30:32.016Z,17.01
2023-05-07T17:34:21.577Z,17.06
2023-05-07T17:38:31.400Z,17.02
2023-05-07T17:42:39.933Z,17.00
2023-05-07T17:46:40.426Z,16.93
2023-05-07T17:50:49.983Z,16.90
2023-05-07T17:54:38.187Z,16.77
2023-05-07T17:58:49.007Z,16.56
2023-05-07T18:03:07.398Z,16.25
2023-05-07T18:07:07.581Z,15.83
2023-05-07T18:11:09.640Z,15.39
2023-05-07T18:14:31.351Z,15.01
2023-05-07T18:17:38.279Z,14.79
2023-05-07T18:21:30.423Z,14.69
2023-05-07T18:25:40.097Z,14.38
2023-05-07T18:29:49.626Z,14.10
2023-05-07T18:33:47.991Z,13.94
2023-05-07T18:37:48.347Z,13.77
2023-05-07T18:42:03.927Z,13.57
2023-05-07T18:46:06.324Z,13.27
2023-05-07T18:50:00.414Z,12.86
2023-05-07T18:53:53.151Z,12.70
2023-05-07T18:57:58.534Z,12.50
2023-05-07T19:02:08.042Z,12.25
2023-05-07T19:05:44.487Z,12.10
2023-05-07T19:09:25.775Z,12.04
2023-05-07T19:13:36.047Z,12.02
2023-05-07T19:17:13.394Z,11.96
2023-05-07T19:21:15.785Z,11.93
2023-05-07T19:24:59.018Z,11.93
2023-05-07T19:28:30.729Z,11.88
2023-05-07T19:32:40.483Z,11.89
2023-05-07T19:36:50.382Z,11.83
2023-05-07T19:40:14.732Z,11.78
2023-05-07T19:43:39.554Z,11.77
2023-05-07T19:47:36.192Z,11.73
2023-05-07T19:51:38.871Z,11.67
2023-05-07T19:55:31.701Z,11.64
2023-05-07T19:59:40.225Z,11.63
2023-05-07T20:03:49.864Z,11.60
2023-05-07T20:07:59.955Z,11.52
2023-05-07T20:12:09.444Z,11.44
2023-05-07T20:16:20.548Z,11.39
2023-05-07T20:20:30.848Z,11.36
2023-05-07T20:24:32.256Z,11.31
2023-05-07T20:28:01.282Z,11.27
2023-05-07T20:31:53.561Z,11.20
2023-05-07T20:36:01.826Z,11.17
2023-05-07T20:40:00.205Z,11.12
2023-05-07T20:44:09.822Z,11.05
2023-05-07T20:48:12.119Z,11.01
2023-05-07T20:51:50.269Z,10.98
2023-05-07T20:55:45.066Z,10.97
2023-05-07T20:59:53.738Z,10.94
2023-05-07T21:04:03.248Z,10.91
2023-05-07T21:08:12.923Z,10.87
2023-05-07T21:12:08.059Z,10.83
2023-05-07T21:16:10.852Z,10.77
2023-05-07T21:20:13.733Z,10.72
2023-05-07T21:24:23.827Z,10.67
2023-05-07T21:28:33.341Z,10.67
2023-05-07T21:32:41.614Z,10.67
2023-05-07T21:36:50.994Z,10.66
2023-05-07T21:41:00.646Z,10.70
2023-05-07T21:45:09.373Z,10.69
2023-05-07T21:49:19.113Z,10.71
2023-05-07T21:53:28.785Z,10.68
2023-05-07T21:57:21.750Z,10.62
2023-05-07T22:01:31.408Z,10.54
2023-05-07T22:05:41.017Z,10.48
2023-05-07T22:09:50.710Z,10.44
2023-05-07T22:13:48.944Z,10.39
2023-05-07T22:17:58.428Z,10.35
2023-05-07T22:22:07.812Z,10.38
2023-05-07T22:26:02.846Z,10.37
2023-05-07T22:29:47.015Z,10.31
2023-05-07T22:33:56.524Z,10.22
2023-05-07T22:38:05.742Z,10.08
2023-05-07T22:42:15.286Z,9.99
2023-05-07T22:46:25.142Z,9.94
2023-05-07T22:50:37.609Z,9.91
2023-05-07T22:54:47.163Z,9.90
2023-05-07T22:58:56.584Z,9.88
2023-05-07T23:02:59.182Z,9.81
2023-05-07T23:07:08.795Z,9.74
2023-05-07T23:11:18.342Z,9.68
2023-05-07T23:15:10.890Z,9.58
2023-05-07T23:19:19.205Z,9.53
2023-05-07T23:23:21.825Z,9.45
2023-05-07T23:34:58.397Z,9.28
2023-05-07T23:39:07.893Z,9.18
2023-05-07T23:43:16.596Z,9.07
2023-05-07T23:47:19.823Z,8.94
2023-05-07T23:51:29.577Z,8.86
2023-05-07T23:55:40.859Z,8.77
2023-05-07T23:59:43.015Z,8.71
